Time;durP1;ratioP1;P1;durP2;ratioP2;P2;SDS_P1;SDS_P2;PMS_P1;PMS_P2;Temp;Humidity;BMP_temperature;BMP_pressure;BME280_temperature;BME280_humidity;BME280_pressure;Samples;Min_cycle;Max_cycle;Signal;HPM_P1;HPM_P2
2021/10/05 00:01:28;;;;;;;11.93;4.60;;;;;;;-149.78;100.00;50377.56;4827655;29;20125;-73
2021/10/05 00:03:54;;;;;;;9.57;3.92;;;;;;;-149.78;100.00;50354.09;4814046;29;20060;-72
2021/10/05 00:06:20;;;;;;;12.43;4.15;;;;;;;-149.78;100.00;50391.25;4828086;29;20030;-72
2021/10/05 00:08:46;;;;;;;10.02;4.20;;;;;;;-149.78;100.00;50361.91;4796318;29;20074;-73
2021/10/05 00:11:12;;;;;;;9.43;4.28;;;;;;;-149.78;100.00;50354.09;4825498;29;20121;-73
2021/10/05 00:13:40;;;;;;;12.93;4.20;;;;;;;-149.78;100.00;50358.00;4834204;29;20498;-72
2021/10/05 00:16:05;;;;;;;9.82;4.05;;;;;;;-149.78;100.00;50379.53;4826337;29;20042;-72
2021/10/05 00:18:31;;;;;;;7.45;4.05;;;;;;;-149.78;100.00;50389.31;4832738;29;20034;-72
2021/10/05 00:20:56;;;;;;;10.48;3.28;;;;;;;-149.78;100.00;50363.88;4828149;29;20037;-72
2021/10/05 00:23:22;;;;;;;14.02;3.97;;;;;;;-149.78;100.00;50358.00;4828098;29;20045;-72
2021/10/05 00:25:48;;;;;;;6.30;2.80;;;;;;;-149.78;100.00;50344.31;4825879;29;20034;-73
2021/10/05 00:28:14;;;;;;;4.35;2.58;;;;;;;-149.78;100.00;50346.28;4832088;29;20050;-74
2021/10/05 00:30:39;;;;;;;6.82;2.20;;;;;;;-149.78;100.00;50369.75;4830396;29;20046;-73
2021/10/05 00:33:05;;;;;;;4.75;1.75;;;;;;;-149.78;100.00;50358.00;4811045;29;20128;-74
2021/10/05 00:35:31;;;;;;;7.13;2.25;;;;;;;-149.78;100.00;50336.50;4828347;29;20030;-73
2021/10/05 00:37:59;;;;;;;5.78;2.08;;;;;;;-149.78;100.00;50356.06;4815749;29;20030;-73
2021/10/05 00:40:43;;;;;;;4.55;1.80;;;;;;;-149.78;100.00;50354.09;4820237;29;20077;-73
2021/10/05 00:43:27;;;;;;;6.10;1.55;;;;;;;-149.78;100.00;50350.19;4833494;29;20129;-73
2021/10/05 00:46:11;;;;;;;4.22;1.75;;;;;;;-149.78;100.00;50389.31;4833149;29;20061;-73
2021/10/05 00:48:55;;;;;;;4.47;2.05;;;;;;;-149.78;100.00;50381.47;4820202;29;20130;-72
2021/10/05 00:51:40;;;;;;;5.15;3.08;;;;;;;-149.78;100.00;50369.75;4816988;29;20052;-72
2021/10/05 00:54:23;;;;;;;6.10;2.30;;;;;;;-149.78;100.00;50346.28;4828822;29;20510;-72
2021/10/05 00:57:09;;;;;;;5.20;2.78;;;;;;;-149.78;100.00;50358.00;4831729;29;20057;-73
2021/10/05 00:59:54;;;;;;;8.02;3.53;;;;;;;-149.78;100.00;50361.91;4835521;29;20094;-72
2021/10/05 01:02:39;;;;;;;6.75;2.83;;;;;;;-149.78;100.00;50314.97;4823081;29;20398;-72
2021/10/05 01:05:23;;;;;;;4.18;2.63;;;;;;;-149.78;100.00;50338.44;4809035;29;20052;-73
2021/10/05 01:08:07;;;;;;;6.80;2.70;;;;;;;-149.78;100.00;50332.59;4834174;29;20098;-73
2021/10/05 01:10:52;;;;;;;10.98;2.60;;;;;;;-149.78;100.00;50354.09;4829990;29;20390;-73
2021/10/05 01:13:37;;;;;;;4.57;2.50;;;;;;;-149.78;100.00;50314.97;4827204;29;20106;-72
2021/10/05 01:16:21;;;;;;;4.97;2.50;;;;;;;-149.78;100.00;50354.09;4832354;29;20133;-72
2021/10/05 01:19:05;;;;;;;6.47;2.53;;;;;;;-149.78;100.00;50359.97;4832793;29;20462;-73
2021/10/05 01:21:50;;;;;;;6.13;2.22;;;;;;;-149.78;100.00;50314.97;4835840;29;20410;-73
2021/10/05 01:24:35;;;;;;;7.07;2.58;;;;;;;-149.78;100.00;50342.38;4826791;29;20535;-73
2021/10/05 01:27:22;;;;;;;6.90;2.63;;;;;;;-149.78;100.00;50346.28;4829920;29;20094;-72
2021/10/05 01:30:06;;;;;;;7.10;2.88;;;;;;;-149.78;100.00;50377.56;4836409;29;20451;-73
2021/10/05 01:32:51;;;;;;;7.22;3.85;;;;;;;-149.78;100.00;50342.38;4835738;29;20053;-73
2021/10/05 01:35:35;;;;;;;6.35;2.85;;;;;;;-149.78;100.00;50348.22;4834053;29;20164;-73
2021/10/05 01:38:20;;;;;;;5.50;2.70;;;;;;;-149.78;100.00;50361.91;4824925;29;20065;-73
2021/10/05 01:41:04;;;;;;;4.40;2.55;;;;;;;-149.78;100.00;50389.31;4835383;29;20101;-73
2021/10/05 01:43:48;;;;;;;4.03;2.80;;;;;;;-149.78;100.00;50377.56;4815725;29;20095;-73
2021/10/05 01:46:32;;;;;;;5.70;2.67;;;;;;;-149.78;100.00;50365.84;4831760;29;20069;-73
2021/10/05 01:49:18;;;;;;;4.90;2.75;;;;;;;-149.78;100.00;50350.19;4819749;29;20057;-73
2021/10/05 01:52:04;;;;;;;4.78;1.90;;;;;;;-149.78;100.00;50322.81;4819758;29;20049;-73
2021/10/05 01:54:48;;;;;;;4.75;1.80;;;;;;;-149.78;100.00;50334.53;4831710;29;20232;-72
2021/10/05 01:57:32;;;;;;;3.80;1.55;;;;;;;-149.78;100.00;50363.88;4827495;29;20049;-73
2021/10/05 02:00:16;;;;;;;5.10;1.65;;;;;;;-149.78;100.00;50361.91;4829380;29;20092;-72
2021/10/05 02:03:01;;;;;;;4.60;1.80;;;;;;;-149.78;100.00;50369.75;4832820;29;20125;-73
2021/10/05 02:05:45;;;;;;;3.47;1.67;;;;;;;-149.78;100.00;50346.28;4818150;29;20093;-73
2021/10/05 02:08:29;;;;;;;3.42;1.80;;;;;;;-149.78;100.00;50342.38;4831423;29;20088;-72
2021/10/05 02:11:13;;;;;;;3.15;1.60;;;;;;;-149.78;100.00;50373.66;4818599;29;20103;-73
2021/10/05 02:13:57;;;;;;;3.10;1.52;;;;;;;-149.78;100.00;50367.78;4833277;29;20050;-73
2021/10/05 02:16:41;;;;;;;4.75;1.45;;;;;;;-149.78;100.00;50369.75;4827882;29;20494;-73
2021/10/05 02:19:26;;;;;;;3.22;1.70;;;;;;;-149.78;100.00;50383.44;4833578;29;20099;-73
2021/10/05 02:22:10;;;;;;;2.47;1.42;;;;;;;-149.78;100.00;50375.63;4830784;29;20090;-73
2021/10/05 02:24:56;;;;;;;2.45;1.48;;;;;;;-149.78;100.00;50358.00;4816305;29;20099;-73
2021/10/05 02:27:40;;;;;;;2.22;1.40;;;;;;;-149.78;100.00;50389.31;4832198;29;20056;-72
2021/10/05 02:30:25;;;;;;;3.25;1.45;;;;;;;-149.78;100.00;50387.34;4831600;29;20735;-72
2021/10/05 02:33:09;;;;;;;6.28;1.63;;;;;;;-149.78;100.00;50383.44;4831266;29;20061;-74
2021/10/05 02:35:53;;;;;;;2.55;1.50;;;;;;;-149.78;100.00;50338.44;4831072;29;20049;-73
2021/10/05 02:38:36;;;;;;;2.20;1.60;;;;;;;-149.78;100.00;50397.13;4832470;29;20074;-72
2021/10/05 02:41:20;;;;;;;3.05;1.45;;;;;;;-149.78;100.00;50358.00;4825995;29;20063;-73
2021/10/05 02:44:04;;;;;;;3.15;1.50;;;;;;;-149.78;100.00;50354.09;4818076;29;20053;-74
2021/10/05 02:46:49;;;;;;;3.38;1.20;;;;;;;-149.78;100.00;50348.22;4812267;29;20053;-73
2021/10/05 02:49:33;;;;;;;2.42;1.90;;;;;;;-149.78;100.00;50391.25;4816346;29;20050;-73
2021/10/05 02:52:20;;;;;;;1.85;1.30;;;;;;;-149.78;100.00;50358.00;4830139;29;20526;-73
2021/10/05 02:55:05;;;;;;;1.48;1.00;;;;;;;-149.78;100.00;50352.16;4816509;29;20052;-73
2021/10/05 02:57:49;;;;;;;1.85;1.30;;;;;;;-149.78;100.00;50365.84;4824005;29;20070;-73
2021/10/05 03:00:34;;;;;;;1.98;1.40;;;;;;;-149.78;100.00;50369.75;4826585;29;20041;-72
2021/10/05 03:03:18;;;;;;;1.73;1.27;;;;;;;-149.78;100.00;50314.97;4832066;29;20135;-72
2021/10/05 03:06:02;;;;;;;3.60;1.48;;;;;;;-149.78;100.00;50369.75;4836380;29;20061;-72
2021/10/05 03:08:46;;;;;;;4.55;1.42;;;;;;;-149.78;100.00;50371.69;4832168;29;20133;-72
2021/10/05 03:11:30;;;;;;;4.65;1.58;;;;;;;-149.78;100.00;50346.28;4828263;29;20164;-72
2021/10/05 03:14:14;;;;;;;2.80;1.65;;;;;;;-149.78;100.00;50354.09;4831591;29;20048;-73
2021/10/05 03:16:58;;;;;;;3.97;1.40;;;;;;;-149.78;100.00;50358.00;4814760;29;20048;-72
2021/10/05 03:19:42;;;;;;;2.35;1.25;;;;;;;-149.78;100.00;50375.63;4818845;29;20090;-73
2021/10/05 03:22:26;;;;;;;2.13;1.30;;;;;;;-149.78;100.00;50373.66;4800969;29;20145;-72
2021/10/05 03:25:10;;;;;;;1.85;1.20;;;;;;;-149.78;100.00;50381.47;4820255;29;20052;-73
2021/10/05 03:27:54;;;;;;;4.32;1.08;;;;;;;-149.78;100.00;50358.00;4813060;29;20056;-73
2021/10/05 03:30:38;;;;;;;2.30;1.17;;;;;;;-149.78;100.00;50363.88;4834561;29;20057;-72
2021/10/05 03:33:23;;;;;;;1.70;1.30;;;;;;;-149.78;100.00;50389.31;4816927;29;20084;-72
2021/10/05 03:36:08;;;;;;;2.05;0.93;;;;;;;-149.78;100.00;50350.19;4820019;29;20176;-73
2021/10/05 03:38:52;;;;;;;1.88;0.98;;;;;;;-149.78;100.00;50393.22;4834200;29;20110;-72
2021/10/05 03:41:36;;;;;;;1.60;1.02;;;;;;;-149.78;100.00;50377.56;4828363;29;20164;-72
2021/10/05 03:44:20;;;;;;;1.90;1.15;;;;;;;-149.78;100.00;50369.75;4829466;29;20543;-72
2021/10/05 03:47:04;;;;;;;1.13;0.98;;;;;;;-149.78;100.00;50365.84;4836075;29;20053;-72
2021/10/05 03:49:48;;;;;;;1.38;0.90;;;;;;;-149.78;100.00;50373.66;4824852;29;20414;-72
2021/10/05 03:52:32;;;;;;;1.55;1.05;;;;;;;-149.78;100.00;50377.56;4833906;29;20053;-73
2021/10/05 03:55:17;;;;;;;3.13;1.13;;;;;;;-149.78;100.00;50375.63;4831692;29;20088;-73
2021/10/05 03:58:01;;;;;;;2.10;1.00;;;;;;;-149.78;100.00;50369.75;4829080;29;20049;-72
2021/10/05 04:00:46;;;;;;;2.42;1.20;;;;;;;-149.78;100.00;50358.00;4829445;29;20137;-72
2021/10/05 04:03:31;;;;;;;5.57;2.45;;;;;;;-149.78;100.00;50403.00;4827959;29;20630;-72
2021/10/05 04:06:16;;;;;;;6.90;1.35;;;;;;;-149.78;100.00;50432.31;4831808;29;20387;-73
2021/10/05 04:09:03;;;;;;;2.30;1.40;;;;;;;-149.78;100.00;50350.19;4826908;29;20054;-72
2021/10/05 04:11:47;;;;;;;1.45;1.33;;;;;;;-149.78;100.00;50346.28;4834492;29;20107;-73
2021/10/05 04:14:31;;;;;;;1.48;1.30;;;;;;;-149.78;100.00;50373.66;4835624;29;20471;-73
2021/10/05 04:17:15;;;;;;;2.65;1.45;;;;;;;-149.78;100.00;50399.09;4837063;29;20112;-72
2021/10/05 04:19:59;;;;;;;4.05;1.38;;;;;;;-149.78;100.00;50393.22;4833151;29;20048;-73
2021/10/05 04:22:43;;;;;;;1.77;1.40;;;;;;;-149.78;100.00;50381.47;4833899;29;20067;-73
2021/10/05 04:25:27;;;;;;;3.35;1.50;;;;;;;-149.78;100.00;50391.25;4834347;29;20119;-73
2021/10/05 04:28:12;;;;;;;7.22;1.60;;;;;;;-149.78;100.00;50385.38;4829418;29;20558;-72
2021/10/05 04:30:56;;;;;;;2.92;1.58;;;;;;;-149.78;100.00;50401.03;4830691;29;20127;-72
2021/10/05 04:33:39;;;;;;;5.05;1.70;;;;;;;-149.78;100.00;50354.09;4817715;29;20099;-72
2021/10/05 04:36:23;;;;;;;4.85;1.95;;;;;;;-149.78;100.00;50395.16;4834158;29;20107;-72
2021/10/05 04:39:08;;;;;;;5.40;1.73;;;;;;;-149.78;100.00;50381.47;4836480;29;20057;-73
2021/10/05 04:41:52;;;;;;;4.78;1.83;;;;;;;-149.78;100.00;50373.66;4830150;29;20460;-72
2021/10/05 04:44:37;;;;;;;3.50;1.55;;;;;;;-149.78;100.00;50389.31;4832828;29;20084;-72
2021/10/05 04:47:21;;;;;;;2.65;1.70;;;;;;;-149.78;100.00;50408.84;4817932;29;20056;-72
2021/10/05 04:50:07;;;;;;;2.60;1.67;;;;;;;-149.78;100.00;50373.66;4817123;29;20133;-72
2021/10/05 04:52:51;;;;;;;2.67;1.67;;;;;;;-149.78;100.00;50383.44;4819121;29;20179;-72
2021/10/05 04:55:37;;;;;;;3.05;1.50;;;;;;;-149.78;100.00;50393.22;4831870;29;20551;-72
2021/10/05 04:58:22;;;;;;;3.15;1.60;;;;;;;-149.78;100.00;50356.06;4820439;29;20057;-72
2021/10/05 05:01:06;;;;;;;4.45;1.70;;;;;;;-149.78;100.00;50377.56;4831736;29;20121;-72
2021/10/05 05:03:50;;;;;;;4.43;1.55;;;;;;;-149.78;100.00;50369.75;4820534;29;20061;-72
2021/10/05 05:06:34;;;;;;;6.25;2.20;;;;;;;-149.78;100.00;50404.94;4822147;29;20057;-72
2021/10/05 05:09:19;;;;;;;2.90;1.75;;;;;;;-149.78;100.00;50379.53;4830372;29;20064;-73
2021/10/05 05:12:03;;;;;;;4.20;2.10;;;;;;;-149.78;100.00;50385.38;4833762;29;20069;-72
2021/10/05 05:14:47;;;;;;;4.05;1.75;;;;;;;-149.78;100.00;50404.94;4834060;29;20547;-72
2021/10/05 05:17:31;;;;;;;3.10;1.83;;;;;;;-149.78;100.00;50424.50;4833412;29;20099;-72
2021/10/05 05:20:15;;;;;;;5.68;2.30;;;;;;;-149.78;100.00;50389.31;4816707;29;20083;-72
2021/10/05 05:22:59;;;;;;;4.13;2.00;;;;;;;-149.78;100.00;50375.63;4832156;29;20053;-72
2021/10/05 05:25:42;;;;;;;9.73;1.83;;;;;;;-149.78;100.00;50373.66;4835081;29;20052;-72
2021/10/05 05:28:26;;;;;;;4.93;1.83;;;;;;;-149.78;100.00;50395.16;4814603;29;20407;-72
2021/10/05 05:31:10;;;;;;;3.72;1.70;;;;;;;-149.78;100.00;50391.25;4813864;29;20614;-72
2021/10/05 05:33:54;;;;;;;2.70;1.67;;;;;;;-149.78;100.00;50365.84;4807247;29;20054;-72
2021/10/05 05:36:19;;;;;;;5.85;1.85;;;;;;;-149.78;100.00;50377.56;4812058;29;20035;-72
2021/10/05 05:38:45;;;;;;;4.05;1.73;;;;;;;-149.78;100.00;50404.94;4802878;29;20031;-73
2021/10/05 05:41:11;;;;;;;3.80;1.90;;;;;;;-149.78;100.00;50416.69;4811647;29;20099;-72
2021/10/05 05:43:36;;;;;;;4.75;2.00;;;;;;;-149.78;100.00;50375.63;4815807;29;20046;-73
2021/10/05 05:46:02;;;;;;;3.30;2.00;;;;;;;-149.78;100.00;50408.84;4825272;29;20563;-73
2021/10/05 05:48:28;;;;;;;2.80;1.63;;;;;;;-149.78;100.00;50377.56;4799288;29;20050;-73
2021/10/05 05:50:53;;;;;;;5.15;1.98;;;;;;;-149.78;100.00;50422.56;4813218;29;20058;-73
2021/10/05 05:53:19;;;;;;;3.25;1.60;;;;;;;-149.78;100.00;50424.50;4810815;29;20030;-73
2021/10/05 05:55:45;;;;;;;2.72;1.50;;;;;;;-149.78;100.00;50410.81;4811965;29;20395;-73
2021/10/05 05:58:12;;;;;;;4.18;1.80;;;;;;;-149.78;100.00;50373.66;4806653;29;20046;-73
2021/10/05 06:00:39;;;;;;;7.05;1.70;;;;;;;-149.78;100.00;50408.84;4810113;29;20106;-73
2021/10/05 06:03:05;;;;;;;3.40;1.90;;;;;;;-149.78;100.00;50401.03;4812409;29;20034;-74
2021/10/05 06:05:31;;;;;;;4.10;1.90;;;;;;;-149.78;100.00;50385.38;4812416;29;20047;-74
2021/10/05 06:07:57;;;;;;;3.58;1.98;;;;;;;-149.78;100.00;50432.31;4817169;29;20098;-72
2021/10/05 06:10:23;;;;;;;5.43;2.40;;;;;;;-149.78;100.00;50381.47;4810107;29;20026;-73
2021/10/05 06:12:49;;;;;;;8.07;1.88;;;;;;;-149.78;100.00;50373.66;4812917;29;20041;-75
2021/10/05 06:15:17;;;;;;;3.70;1.80;;;;;;;-149.78;100.00;50428.41;4816545;29;20073;-73
2021/10/05 06:17:44;;;;;;;3.97;2.00;;;;;;;-149.78;100.00;50373.66;4796837;29;20137;-73
2021/10/05 06:20:16;;;;;;;4.60;2.55;;;;;;;-149.78;100.00;50381.47;4807146;29;20035;-70
2021/10/05 06:22:42;;;;;;;4.97;1.63;;;;;;;-149.78;100.00;50418.63;4809400;29;20034;-72
2021/10/05 06:25:11;;;;;;;5.40;2.40;;;;;;;-149.78;100.00;50397.13;4795501;29;20035;-72
2021/10/05 06:27:38;;;;;;;5.75;2.15;;;;;;;-149.78;100.00;50408.84;4819129;29;20098;-71
2021/10/05 06:30:06;;;;;;;3.88;1.75;;;;;;;-149.78;100.00;50369.75;4827197;29;20050;-73
2021/10/05 06:32:31;;;;;;;4.65;1.90;;;;;;;-149.78;100.00;50420.59;4841939;29;20038;-71
2021/10/05 06:34:57;;;;;;;5.45;1.90;;;;;;;-149.78;100.00;50420.59;4813515;29;20425;-73
2021/10/05 06:37:23;;;;;;;4.80;1.80;;;;;;;-149.78;100.00;50408.84;4831917;29;20029;-70
2021/10/05 06:39:48;;;;;;;6.80;1.83;;;;;;;-149.78;100.00;50404.94;4830086;29;20448;-74
2021/10/05 06:42:14;;;;;;;7.22;2.10;;;;;;;-149.78;100.00;50420.59;4827158;29;20082;-72
2021/10/05 06:44:40;;;;;;;4.72;1.77;;;;;;;-149.78;100.00;50420.59;4827287;29;20037;-72
2021/10/05 06:47:06;;;;;;;2.38;1.30;;;;;;;-149.78;100.00;50387.34;4835802;29;20170;-72
2021/10/05 06:49:32;;;;;;;2.88;1.67;;;;;;;-149.78;100.00;50414.72;4831163;29;20125;-71
2021/10/05 06:52:00;;;;;;;9.32;2.60;;;;;;;-149.78;100.00;50381.47;4824515;29;20037;-73
2021/10/05 06:54:26;;;;;;;4.63;1.85;;;;;;;-149.78;100.00;50428.41;4840090;29;20041;-73
2021/10/05 06:56:52;;;;;;;4.28;1.73;;;;;;;-149.78;100.00;50404.94;4833996;29;20383;-71
2021/10/05 06:59:17;;;;;;;6.20;1.90;;;;;;;-149.78;100.00;50381.47;4839464;29;20499;-72
2021/10/05 07:01:43;;;;;;;4.13;1.65;;;;;;;-149.78;100.00;50422.56;4840345;29;20038;-73
2021/10/05 07:04:10;;;;;;;4.20;1.52;;;;;;;-149.78;100.00;50420.59;4835687;29;20068;-71
2021/10/05 07:06:37;;;;;;;4.22;2.00;;;;;;;-149.78;100.00;50404.94;4811960;29;20038;-73
2021/10/05 07:09:06;;;;;;;5.43;1.45;;;;;;;-149.78;100.00;50412.78;4841065;29;20487;-74
2021/10/05 07:11:33;;;;;;;3.47;1.60;;;;;;;-149.78;100.00;50404.94;4840143;29;20121;-74
2021/10/05 07:13:59;;;;;;;3.05;1.30;;;;;;;-149.78;100.00;50385.38;4829357;29;20137;-71
2021/10/05 07:16:24;;;;;;;2.70;1.40;;;;;;;-149.78;100.00;50403.00;4836649;29;20124;-74
2021/10/05 07:18:50;;;;;;;2.25;1.45;;;;;;;-149.78;100.00;50408.84;4805722;29;20038;-74
2021/10/05 07:21:16;;;;;;;2.75;1.63;;;;;;;-149.78;100.00;50440.16;4824765;29;20522;-73
2021/10/05 07:23:44;;;;;;;3.60;1.38;;;;;;;-149.78;100.00;50406.91;4828330;29;20058;-73
2021/10/05 07:26:09;;;;;;;2.20;1.33;;;;;;;-149.78;100.00;50428.41;4814622;29;20697;-74
2021/10/05 07:28:35;;;;;;;4.00;1.33;;;;;;;-149.78;100.00;50404.94;4809034;29;20395;-73
2021/10/05 07:31:01;;;;;;;3.55;1.48;;;;;;;-149.78;100.00;50420.59;4806403;29;20046;-73
2021/10/05 07:33:27;;;;;;;3.80;1.20;;;;;;;-149.78;100.00;50412.78;4839108;29;20390;-73
2021/10/05 07:35:54;;;;;;;3.63;1.65;;;;;;;-149.78;100.00;50408.84;4828097;29;20121;-73
2021/10/05 07:38:20;;;;;;;3.65;1.30;;;;;;;-149.78;100.00;50391.25;4814534;29;20199;-73
2021/10/05 07:40:47;;;;;;;1.42;1.13;;;;;;;-149.78;100.00;50385.38;4823625;29;20124;-73
2021/10/05 07:43:15;;;;;;;4.05;1.10;;;;;;;-149.78;100.00;50389.31;4843529;29;20479;-73
2021/10/05 07:45:44;;;;;;;2.55;1.15;;;;;;;-149.78;100.00;50395.16;4824925;29;20099;-74
2021/10/05 07:48:10;;;;;;;4.50;1.10;;;;;;;-149.78;100.00;50381.47;4845519;29;20056;-74
2021/10/05 07:50:36;;;;;;;5.38;1.30;;;;;;;-149.78;100.00;50393.22;4846757;29;20124;-74
2021/10/05 07:53:03;;;;;;;1.98;1.42;;;;;;;-149.78;100.00;50387.34;4846039;29;20436;-74
2021/10/05 07:55:31;;;;;;;3.63;1.10;;;;;;;-149.78;100.00;50397.13;4830713;29;20042;-73
2021/10/05 07:57:57;;;;;;;1.40;1.00;;;;;;;-149.78;100.00;50404.94;4846267;29;20042;-74
2021/10/05 08:00:22;;;;;;;1.55;1.10;;;;;;;-149.78;100.00;50416.69;4846007;29;20037;-74
2021/10/05 08:02:48;;;;;;;1.80;1.00;;;;;;;-149.78;100.00;50385.38;4815475;29;20037;-73
2021/10/05 08:05:17;;;;;;;2.53;1.17;;;;;;;-149.78;100.00;50381.47;4829434;29;20041;-74
2021/10/05 08:07:43;;;;;;;1.45;1.13;;;;;;;-149.78;100.00;50389.31;4847132;29;20038;-74
2021/10/05 08:10:09;;;;;;;1.90;0.88;;;;;;;-149.78;100.00;50369.75;4843199;29;20057;-75
2021/10/05 08:12:36;;;;;;;3.25;1.40;;;;;;;-149.78;100.00;50330.63;4845516;29;20065;-74
2021/10/05 08:15:01;;;;;;;2.85;1.33;;;;;;;-149.78;100.00;50287.59;4830547;29;20471;-74
2021/10/05 08:17:27;;;;;;;1.15;0.90;;;;;;;-149.78;100.00;50248.50;4830479;29;20133;-74
2021/10/05 08:19:53;;;;;;;1.30;0.85;;;;;;;-149.78;100.00;50217.19;4848067;29;20045;-74
2021/10/05 08:22:19;;;;;;;1.77;0.90;;;;;;;-149.78;100.00;50176.13;4845100;29;20041;-74
2021/10/05 08:24:44;;;;;;;3.20;1.00;;;;;;;-149.78;79.17;50197.66;4847707;29;20049;-74
2021/10/05 08:27:10;;;;;;;0.70;0.57;;;;;;;-149.78;65.75;50158.53;4846297;29;20034;-74
2021/10/05 08:29:42;;;;;;;2.72;0.70;;;;;;;-149.78;62.16;50129.19;4846609;29;20042;-74
2021/10/05 08:32:08;;;;;;;0.60;0.60;;;;;;;-149.78;62.00;50146.81;4841508;29;20689;-74
2021/10/05 08:34:35;;;;;;;1.95;1.00;;;;;;;-149.78;57.17;50095.94;4840192;29;20120;-74
2021/10/05 08:37:01;;;;;;;0.77;0.70;;;;;;;-149.78;56.80;50103.78;4847004;29;20034;-74
2021/10/05 08:39:27;;;;;;;0.68;0.68;;;;;;;-149.78;58.15;50113.56;4846535;29;20545;-70
2021/10/05 08:41:52;;;;;;;5.78;0.63;;;;;;;-149.78;56.90;50154.63;4833725;29;20488;-73
2021/10/05 08:44:18;;;;;;;1.20;0.68;;;;;;;-149.78;59.27;50123.34;4812236;29;20106;-74
2021/10/05 08:46:44;;;;;;;0.88;0.65;;;;;;;-149.78;61.61;50146.81;4846832;29;20038;-73
2021/10/05 08:49:10;;;;;;;2.08;0.85;;;;;;;-149.78;68.50;50225.03;4846527;29;20061;-73
2021/10/05 08:51:38;;;;;;;2.22;1.15;;;;;;;-149.78;66.22;50178.09;4846938;29;20103;-73
2021/10/05 08:54:05;;;;;;;2.67;1.77;;;;;;;-149.78;66.97;50209.38;4847532;29;20087;-72
2021/10/05 08:56:32;;;;;;;4.10;2.25;;;;;;;-149.78;70.99;50170.25;4838477;29;20076;-73
2021/10/05 08:58:57;;;;;;;4.18;2.70;;;;;;;-149.78;64.66;50174.19;4827540;29;20504;-73
2021/10/05 09:01:32;;;;;;;4.57;3.20;;;;;;;-149.78;66.98;50225.03;4826355;29;20034;-73
2021/10/05 09:04:00;;;;;;;5.28;3.45;;;;;;;-149.78;71.85;50209.38;4838016;29;20094;-73
2021/10/05 09:06:25;;;;;;;5.07;3.35;;;;;;;-149.78;73.03;50209.38;4842349;29;20033;-73
2021/10/05 09:08:55;;;;;;;6.93;4.90;;;;;;;-149.78;66.47;50174.19;4825182;29;20038;-73
2021/10/05 09:11:24;;;;;;;9.75;4.72;;;;;;;-149.78;68.96;50209.38;4827224;29;20027;-74
2021/10/05 09:13:53;;;;;;;9.60;6.00;;;;;;;-149.78;71.90;50197.66;4841907;29;20063;-74
2021/10/05 09:16:19;;;;;;;11.73;6.60;;;;;;;-149.78;74.62;50232.84;4843914;29;20130;-73
2021/10/05 09:19:11;;;;;;;10.80;6.53;;;;;;;-149.78;84.07;50268.03;4824440;29;20125;-73
2021/10/05 09:21:47;;;;;;;12.23;6.78;;;;;;;-149.78;97.05;50260.22;4836871;29;20073;-73
2021/10/05 09:24:35;;;;;;;11.52;6.47;;;;;;;-149.78;100.00;50303.25;4850096;29;20092;-73
2021/10/05 09:27:04;;;;;;;12.40;6.75;;;;;;;-149.78;100.00;50275.88;4840695;29;20121;-73
2021/10/05 09:29:36;;;;;;;11.52;7.07;;;;;;;-149.78;100.00;50326.72;4809290;29;20546;-73
2021/10/05 09:32:05;;;;;;;12.73;7.20;;;;;;;-149.78;100.00;50275.88;4849339;29;20050;-73
2021/10/05 09:34:56;;;;;;;12.40;8.02;;;;;;;-149.78;100.00;50326.72;4810685;29;20041;-73
2021/10/05 09:37:30;;;;;;;14.25;8.63;;;;;;;-149.78;100.00;50320.84;4841458;29;20034;-73
2021/10/05 09:40:01;;;;;;;13.27;8.18;;;;;;;-149.78;100.00;50303.25;4846764;29;20050;-73
2021/10/05 09:42:44;;;;;;;14.75;8.60;;;;;;;-149.78;100.00;50322.81;4831199;29;20029;-73
2021/10/05 09:45:15;;;;;;;9.07;6.40;;;;;;;-149.78;100.00;50314.97;4846761;29;20113;-74
2021/10/05 09:47:44;;;;;;;18.50;7.22;;;;;;;-149.78;100.00;50354.09;4837644;29;20044;-73
2021/10/05 09:50:13;;;;;;;12.52;6.93;;;;;;;-149.78;100.00;50326.72;4834750;29;20083;-73
2021/10/05 09:52:44;;;;;;;10.95;6.80;;;;;;;-149.78;100.00;50393.22;4842875;29;20038;-73
2021/10/05 09:55:11;;;;;;;14.88;7.90;;;;;;;-149.78;100.00;50365.84;4835956;29;20030;-73
2021/10/05 09:57:36;;;;;;;12.63;7.53;;;;;;;-149.78;100.00;50350.19;4842143;29;20135;-73
2021/10/05 10:00:05;;;;;;;12.93;7.60;;;;;;;-149.78;100.00;50342.38;4842797;29;20042;-73
2021/10/05 10:02:34;;;;;;;11.40;6.65;;;;;;;-149.78;100.00;50330.63;4825105;29;20038;-73
2021/10/05 10:05:01;;;;;;;13.15;6.82;;;;;;;-149.78;100.00;50385.38;4843620;29;20045;-73
2021/10/05 10:07:28;;;;;;;10.27;6.15;;;;;;;-149.78;100.00;50354.09;4842110;29;20526;-73
2021/10/05 10:09:54;;;;;;;8.05;5.50;;;;;;;-149.78;100.00;50340.41;4841572;29;20042;-73
2021/10/05 10:12:21;;;;;;;10.30;5.53;;;;;;;-149.78;100.00;50397.13;4824606;29;20038;-73
2021/10/05 10:14:50;;;;;;;10.02;5.90;;;;;;;-149.78;100.00;50334.53;4826744;29;20038;-72
2021/10/05 10:17:23;;;;;;;5.05;3.13;;;;;;;-149.78;100.00;50358.00;4841802;29;20053;-72
2021/10/05 10:19:49;;;;;;;4.50;3.05;;;;;;;-149.78;100.00;50363.88;4840444;29;20034;-72
2021/10/05 10:22:15;;;;;;;6.22;3.10;;;;;;;-149.78;100.00;50361.91;4840509;29;20048;-72
2021/10/05 10:24:50;;;;;;;3.80;2.50;;;;;;;-149.78;100.00;50354.09;4824851;29;20033;-72
2021/10/05 10:27:17;;;;;;;1.30;1.20;;;;;;;-149.78;100.00;50385.38;4841782;29;20045;-73
2021/10/05 10:29:43;;;;;;;1.58;1.23;;;;;;;-149.78;100.00;50361.91;4841792;29;20038;-72
2021/10/05 10:32:11;;;;;;;1.20;1.10;;;;;;;-149.78;100.00;50375.63;4842464;29;20060;-72
2021/10/05 10:34:38;;;;;;;0.80;0.80;;;;;;;-149.78;100.00;50338.44;4841432;29;20117;-73
2021/10/05 10:37:48;;;;;;;0.73;0.73;;;;;;;-149.78;100.00;50354.09;4837066;29;20058;-72
2021/10/05 10:40:16;;;;;;;0.88;0.70;;;;;;;-149.78;100.00;50369.75;4834825;29;20081;-73
2021/10/05 10:42:42;;;;;;;0.47;0.47;;;;;;;-149.78;100.00;50408.84;4836320;29;20129;-73
2021/10/05 10:45:20;;;;;;;0.60;0.60;;;;;;;-149.78;100.00;50332.59;4826161;29;20105;-73
2021/10/05 10:47:52;;;;;;;0.60;0.60;;;;;;;-149.78;100.00;50334.53;4834379;29;20469;-74
2021/10/05 10:50:18;;;;;;;0.73;0.73;;;;;;;-149.78;100.00;50373.66;4840751;29;20069;-74
2021/10/05 10:52:46;;;;;;;0.57;0.55;;;;;;;-149.78;100.00;50356.06;4839406;29;20042;-73
2021/10/05 10:55:19;;;;;;;0.70;0.70;;;;;;;-149.78;100.00;50322.81;4836429;29;20046;-73
2021/10/05 10:57:56;;;;;;;0.82;0.82;;;;;;;-149.78;100.00;50342.38;4842993;29;20037;-73
2021/10/05 11:00:27;;;;;;;0.80;0.75;;;;;;;-149.78;100.00;50350.19;4820807;29;20057;-73
2021/10/05 11:02:55;;;;;;;0.77;0.77;;;;;;;-149.78;100.00;50326.72;4842638;29;20034;-73
2021/10/05 11:05:22;;;;;;;1.42;0.90;;;;;;;-149.78;100.00;50311.06;4823811;29;20038;-73
2021/10/05 11:07:56;;;;;;;2.17;0.90;;;;;;;-149.78;100.00;50289.56;4819763;29;20483;-72
2021/10/05 11:10:27;;;;;;;1.25;0.93;;;;;;;-149.78;100.00;50354.09;4840359;29;20124;-73
2021/10/05 11:12:57;;;;;;;1.10;0.90;;;;;;;-149.78;100.00;50318.91;4841691;29;20064;-73
2021/10/05 11:15:32;;;;;;;2.92;1.00;;;;;;;-149.78;100.00;50307.16;4840028;29;20041;-73
2021/10/05 11:18:18;;;;;;;1.13;0.93;;;;;;;-149.78;100.00;50324.75;4824569;29;20402;-73
2021/10/05 11:20:46;;;;;;;0.93;0.82;;;;;;;-149.78;100.00;50330.63;4837489;29;20037;-73
2021/10/05 11:23:13;;;;;;;1.48;1.10;;;;;;;-149.78;100.00;50336.50;4838707;29;20030;-73
2021/10/05 11:25:48;;;;;;;0.75;0.75;;;;;;;-149.78;100.00;50342.38;4839153;29;20088;-73
2021/10/05 11:28:17;;;;;;;2.03;1.10;;;;;;;-149.78;100.00;50361.91;4840839;29;20033;-72
2021/10/05 11:30:56;;;;;;;1.35;0.93;;;;;;;-149.78;100.00;50338.44;4822750;29;20137;-73
2021/10/05 11:33:24;;;;;;;3.53;1.20;;;;;;;-149.78;100.00;50348.22;4836519;29;20040;-73
2021/10/05 11:35:50;;;;;;;2.65;1.77;;;;;;;-149.78;100.00;50334.53;4836917;29;20033;-73
2021/10/05 11:38:16;;;;;;;1.45;1.20;;;;;;;-149.78;100.00;50326.72;4820789;29;20042;-73
2021/10/05 11:40:57;;;;;;;4.18;1.50;;;;;;;-149.78;100.00;50338.44;4823287;29;20060;-73
2021/10/05 11:43:38;;;;;;;1.92;1.52;;;;;;;-149.78;100.00;50381.47;4817061;29;20425;-73